sensor_id;sensor_type;location;lat;lon;timestamp;P1;durP1;ratioP1;P2;durP2;ratioP2
45420;SDS011;55462;47.042;8.292;2022-08-19T00:01:27;7.90;;;7.30;;
45420;SDS011;55462;47.042;8.292;2022-08-19T00:03:54;9.65;;;8.23;;
45420;SDS011;55462;47.042;8.292;2022-08-19T00:06:20;8.05;;;7.55;;
45420;SDS011;55462;47.042;8.292;2022-08-19T00:08:46;8.00;;;7.38;;
45420;SDS011;55462;47.042;8.292;2022-08-19T00:11:11;7.72;;;7.13;;
45420;SDS011;55462;47.042;8.292;2022-08-19T00:13:38;7.78;;;6.60;;
45420;SDS011;55462;47.042;8.292;2022-08-19T00:16:04;7.38;;;6.70;;
45420;SDS011;55462;47.042;8.292;2022-08-19T00:18:31;6.20;;;5.80;;
45420;SDS011;55462;47.042;8.292;2022-08-19T00:20:57;6.63;;;6.22;;
45420;SDS011;55462;47.042;8.292;2022-08-19T00:23:23;5.88;;;5.50;;
45420;SDS011;55462;47.042;8.292;2022-08-19T00:25:49;6.75;;;4.88;;
45420;SDS011;55462;47.042;8.292;2022-08-19T00:28:14;4.93;;;4.53;;
45420;SDS011;55462;47.042;8.292;2022-08-19T00:30:39;8.32;;;4.38;;
45420;SDS011;55462;47.042;8.292;2022-08-19T00:33:05;5.20;;;4.78;;
45420;SDS011;55462;47.042;8.292;2022-08-19T00:35:33;6.15;;;5.55;;
45420;SDS011;55462;47.042;8.292;2022-08-19T00:37:58;9.45;;;6.38;;
45420;SDS011;55462;47.042;8.292;2022-08-19T00:40:24;8.32;;;7.50;;
45420;SDS011;55462;47.042;8.292;2022-08-19T00:42:50;8.30;;;7.60;;
45420;SDS011;55462;47.042;8.292;2022-08-19T00:45:23;8.02;;;7.43;;
45420;SDS011;55462;47.042;8.292;2022-08-19T00:47:50;8.85;;;8.25;;
45420;SDS011;55462;47.042;8.292;2022-08-19T00:50:16;9.48;;;8.18;;
45420;SDS011;55462;47.042;8.292;2022-08-19T00:52:45;9.18;;;8.25;;
45420;SDS011;55462;47.042;8.292;2022-08-19T00:55:14;7.93;;;7.25;;
45420;SDS011;55462;47.042;8.292;2022-08-19T00:57:44;7.68;;;7.10;;
45420;SDS011;55462;47.042;8.292;2022-08-19T01:00:13;8.48;;;6.68;;
45420;SDS011;55462;47.042;8.292;2022-08-19T01:02:40;7.28;;;6.78;;
45420;SDS011;55462;47.042;8.292;2022-08-19T01:05:06;7.47;;;6.80;;
45420;SDS011;55462;47.042;8.292;2022-08-19T01:07:34;7.13;;;6.68;;
45420;SDS011;55462;47.042;8.292;2022-08-19T01:10:00;6.97;;;6.38;;
45420;SDS011;55462;47.042;8.292;2022-08-19T01:12:26;7.22;;;6.72;;
45420;SDS011;55462;47.042;8.292;2022-08-19T01:14:51;7.20;;;6.53;;
45420;SDS011;55462;47.042;8.292;2022-08-19T01:17:17;6.07;;;5.75;;
45420;SDS011;55462;47.042;8.292;2022-08-19T01:19:46;6.57;;;6.18;;
45420;SDS011;55462;47.042;8.292;2022-08-19T01:22:15;5.95;;;5.55;;
45420;SDS011;55462;47.042;8.292;2022-08-19T01:24:45;5.53;;;5.22;;
45420;SDS011;55462;47.042;8.292;2022-08-19T01:27:10;5.47;;;5.10;;
45420;SDS011;55462;47.042;8.292;2022-08-19T01:29:36;5.13;;;4.72;;
45420;SDS011;55462;47.042;8.292;2022-08-19T01:32:03;12.82;;;4.55;;
45420;SDS011;55462;47.042;8.292;2022-08-19T01:34:29;5.25;;;4.63;;
45420;SDS011;55462;47.042;8.292;2022-08-19T01:36:54;4.53;;;4.22;;
45420;SDS011;55462;47.042;8.292;2022-08-19T01:39:21;4.85;;;4.35;;
45420;SDS011;55462;47.042;8.292;2022-08-19T01:41:48;5.20;;;4.80;;
45420;SDS011;55462;47.042;8.292;2022-08-19T01:44:14;4.88;;;4.60;;
45420;SDS011;55462;47.042;8.292;2022-08-19T01:46:40;6.03;;;5.53;;
45420;SDS011;55462;47.042;8.292;2022-08-19T01:49:06;3.75;;;3.55;;
45420;SDS011;55462;47.042;8.292;2022-08-19T01:51:33;4.15;;;3.95;;
45420;SDS011;55462;47.042;8.292;2022-08-19T01:53:58;4.47;;;4.07;;
45420;SDS011;55462;47.042;8.292;2022-08-19T01:56:24;4.28;;;3.90;;
45420;SDS011;55462;47.042;8.292;2022-08-19T01:58:58;4.70;;;4.40;;
45420;SDS011;55462;47.042;8.292;2022-08-19T02:01:25;5.28;;;4.88;;
45420;SDS011;55462;47.042;8.292;2022-08-19T02:03:51;5.53;;;4.85;;
45420;SDS011;55462;47.042;8.292;2022-08-19T02:06:19;5.53;;;5.03;;
45420;SDS011;55462;47.042;8.292;2022-08-19T02:08:44;5.97;;;5.55;;
45420;SDS011;55462;47.042;8.292;2022-08-19T02:11:17;7.07;;;5.72;;
45420;SDS011;55462;47.042;8.292;2022-08-19T02:13:47;5.15;;;4.85;;
45420;SDS011;55462;47.042;8.292;2022-08-19T02:16:14;4.70;;;4.38;;
45420;SDS011;55462;47.042;8.292;2022-08-19T02:18:40;3.97;;;3.78;;
45420;SDS011;55462;47.042;8.292;2022-08-19T02:21:05;3.30;;;3.10;;
45420;SDS011;55462;47.042;8.292;2022-08-19T02:23:31;3.40;;;3.30;;
45420;SDS011;55462;47.042;8.292;2022-08-19T02:25:56;3.70;;;3.50;;
45420;SDS011;55462;47.042;8.292;2022-08-19T02:28:21;4.55;;;4.25;;
45420;SDS011;55462;47.042;8.292;2022-08-19T02:30:47;5.38;;;4.75;;
45420;SDS011;55462;47.042;8.292;2022-08-19T02:33:13;5.18;;;4.78;;
45420;SDS011;55462;47.042;8.292;2022-08-19T02:35:41;4.90;;;4.47;;
45420;SDS011;55462;47.042;8.292;2022-08-19T02:38:07;9.43;;;4.90;;
45420;SDS011;55462;47.042;8.292;2022-08-19T02:40:52;4.72;;;4.32;;
45420;SDS011;55462;47.042;8.292;2022-08-19T02:43:20;4.75;;;4.45;;
45420;SDS011;55462;47.042;8.292;2022-08-19T02:45:45;4.78;;;4.38;;
45420;SDS011;55462;47.042;8.292;2022-08-19T02:48:12;4.47;;;4.18;;
45420;SDS011;55462;47.042;8.292;2022-08-19T02:50:38;4.60;;;4.20;;
45420;SDS011;55462;47.042;8.292;2022-08-19T02:53:04;4.85;;;4.55;;
45420;SDS011;55462;47.042;8.292;2022-08-19T02:55:32;5.13;;;4.72;;
45420;SDS011;55462;47.042;8.292;2022-08-19T02:57:58;5.03;;;4.60;;
45420;SDS011;55462;47.042;8.292;2022-08-19T03:00:24;5.45;;;4.82;;
45420;SDS011;55462;47.042;8.292;2022-08-19T03:02:51;4.60;;;4.20;;
45420;SDS011;55462;47.042;8.292;2022-08-19T03:05:16;5.82;;;5.43;;
45420;SDS011;55462;47.042;8.292;2022-08-19T03:07:42;5.05;;;4.68;;
45420;SDS011;55462;47.042;8.292;2022-08-19T03:10:07;8.30;;;5.10;;
45420;SDS011;55462;47.042;8.292;2022-08-19T03:12:35;4.53;;;4.25;;
45420;SDS011;55462;47.042;8.292;2022-08-19T03:15:01;4.95;;;4.60;;
45420;SDS011;55462;47.042;8.292;2022-08-19T03:17:26;4.45;;;4.15;;
45420;SDS011;55462;47.042;8.292;2022-08-19T03:19:52;4.38;;;4.07;;
45420;SDS011;55462;47.042;8.292;2022-08-19T03:22:17;3.40;;;3.20;;
45420;SDS011;55462;47.042;8.292;2022-08-19T03:24:42;2.67;;;2.58;;
45420;SDS011;55462;47.042;8.292;2022-08-19T03:27:08;2.90;;;2.70;;
45420;SDS011;55462;47.042;8.292;2022-08-19T03:29:34;2.67;;;2.58;;
45420;SDS011;55462;47.042;8.292;2022-08-19T03:32:02;2.75;;;2.65;;
45420;SDS011;55462;47.042;8.292;2022-08-19T03:34:29;3.10;;;2.78;;
45420;SDS011;55462;47.042;8.292;2022-08-19T03:36:58;4.28;;;3.00;;
45420;SDS011;55462;47.042;8.292;2022-08-19T03:39:25;3.35;;;3.03;;
45420;SDS011;55462;47.042;8.292;2022-08-19T03:41:51;3.33;;;3.13;;
45420;SDS011;55462;47.042;8.292;2022-08-19T03:44:19;4.60;;;4.20;;
45420;SDS011;55462;47.042;8.292;2022-08-19T03:46:50;4.28;;;3.97;;
45420;SDS011;55462;47.042;8.292;2022-08-19T03:49:21;5.40;;;4.97;;
45420;SDS011;55462;47.042;8.292;2022-08-19T03:51:48;6.13;;;5.47;;
45420;SDS011;55462;47.042;8.292;2022-08-19T03:54:15;5.80;;;5.40;;
45420;SDS011;55462;47.042;8.292;2022-08-19T03:56:44;5.25;;;4.95;;
45420;SDS011;55462;47.042;8.292;2022-08-19T03:59:12;5.10;;;4.70;;
45420;SDS011;55462;47.042;8.292;2022-08-19T04:01:39;4.18;;;3.88;;
45420;SDS011;55462;47.042;8.292;2022-08-19T04:04:04;4.20;;;3.90;;
45420;SDS011;55462;47.042;8.292;2022-08-19T04:06:31;4.53;;;4.18;;
45420;SDS011;55462;47.042;8.292;2022-08-19T04:08:57;3.92;;;3.72;;
45420;SDS011;55462;47.042;8.292;2022-08-19T04:11:26;4.55;;;4.15;;
45420;SDS011;55462;47.042;8.292;2022-08-19T04:13:53;4.13;;;3.80;;
45420;SDS011;55462;47.042;8.292;2022-08-19T04:16:20;4.25;;;3.88;;
45420;SDS011;55462;47.042;8.292;2022-08-19T04:18:46;4.75;;;4.45;;
45420;SDS011;55462;47.042;8.292;2022-08-19T04:21:20;5.32;;;4.93;;
45420;SDS011;55462;47.042;8.292;2022-08-19T04:23:46;5.50;;;5.10;;
45420;SDS011;55462;47.042;8.292;2022-08-19T04:26:15;6.00;;;5.60;;
45420;SDS011;55462;47.042;8.292;2022-08-19T04:28:46;5.68;;;5.15;;
45420;SDS011;55462;47.042;8.292;2022-08-19T04:31:15;6.32;;;5.88;;
45420;SDS011;55462;47.042;8.292;2022-08-19T04:33:42;7.20;;;6.63;;
45420;SDS011;55462;47.042;8.292;2022-08-19T04:36:10;8.45;;;7.85;;
45420;SDS011;55462;47.042;8.292;2022-08-19T04:38:41;7.13;;;6.63;;
45420;SDS011;55462;47.042;8.292;2022-08-19T04:41:06;8.15;;;7.45;;
45420;SDS011;55462;47.042;8.292;2022-08-19T04:43:50;8.32;;;7.72;;
45420;SDS011;55462;47.042;8.292;2022-08-19T04:46:15;9.43;;;8.73;;
45420;SDS011;55462;47.042;8.292;2022-08-19T04:48:42;10.07;;;9.27;;
45420;SDS011;55462;47.042;8.292;2022-08-19T04:51:09;9.73;;;9.02;;
45420;SDS011;55462;47.042;8.292;2022-08-19T04:53:37;9.95;;;9.25;;
45420;SDS011;55462;47.042;8.292;2022-08-19T04:58:34;9.25;;;8.63;;
45420;SDS011;55462;47.042;8.292;2022-08-19T05:00:59;9.50;;;8.80;;
45420;SDS011;55462;47.042;8.292;2022-08-19T05:03:25;9.82;;;8.95;;
45420;SDS011;55462;47.042;8.292;2022-08-19T05:05:50;7.30;;;6.70;;
45420;SDS011;55462;47.042;8.292;2022-08-19T05:08:18;5.63;;;5.25;;
45420;SDS011;55462;47.042;8.292;2022-08-19T05:10:47;5.28;;;4.88;;
45420;SDS011;55462;47.042;8.292;2022-08-19T05:13:13;5.78;;;5.28;;
45420;SDS011;55462;47.042;8.292;2022-08-19T05:15:41;6.22;;;5.82;;
45420;SDS011;55462;47.042;8.292;2022-08-19T05:18:07;5.45;;;5.05;;
45420;SDS011;55462;47.042;8.292;2022-08-19T05:20:51;4.72;;;4.20;;
45420;SDS011;55462;47.042;8.292;2022-08-19T05:23:34;4.45;;;4.15;;
45420;SDS011;55462;47.042;8.292;2022-08-19T05:26:06;4.47;;;4.10;;
45420;SDS011;55462;47.042;8.292;2022-08-19T05:28:31;4.22;;;3.92;;
45420;SDS011;55462;47.042;8.292;2022-08-19T05:30:57;3.92;;;3.63;;
45420;SDS011;55462;47.042;8.292;2022-08-19T05:33:22;4.55;;;4.15;;
45420;SDS011;55462;47.042;8.292;2022-08-19T05:35:49;4.05;;;3.75;;
45420;SDS011;55462;47.042;8.292;2022-08-19T05:38:16;6.28;;;4.10;;
45420;SDS011;55462;47.042;8.292;2022-08-19T05:40:42;4.45;;;4.15;;
45420;SDS011;55462;47.042;8.292;2022-08-19T05:43:11;4.38;;;4.07;;
45420;SDS011;55462;47.042;8.292;2022-08-19T05:45:40;5.35;;;4.82;;
45420;SDS011;55462;47.042;8.292;2022-08-19T05:48:07;5.90;;;5.50;;
45420;SDS011;55462;47.042;8.292;2022-08-19T05:50:32;7.05;;;5.53;;
45420;SDS011;55462;47.042;8.292;2022-08-19T05:52:58;5.93;;;5.43;;
45420;SDS011;55462;47.042;8.292;2022-08-19T05:55:23;6.13;;;5.63;;
45420;SDS011;55462;47.042;8.292;2022-08-19T05:57:49;5.80;;;5.40;;
45420;SDS011;55462;47.042;8.292;2022-08-19T06:00:14;6.20;;;5.70;;
45420;SDS011;55462;47.042;8.292;2022-08-19T06:02:40;6.13;;;5.38;;
45420;SDS011;55462;47.042;8.292;2022-08-19T06:05:06;6.30;;;5.50;;
45420;SDS011;55462;47.042;8.292;2022-08-19T06:07:38;6.22;;;5.70;;
45420;SDS011;55462;47.042;8.292;2022-08-19T06:10:05;6.30;;;5.70;;
45420;SDS011;55462;47.042;8.292;2022-08-19T06:12:32;7.25;;;6.65;;
45420;SDS011;55462;47.042;8.292;2022-08-19T06:15:00;7.38;;;6.68;;
45420;SDS011;55462;47.042;8.292;2022-08-19T06:17:28;7.90;;;7.30;;
45420;SDS011;55462;47.042;8.292;2022-08-19T06:19:54;7.78;;;6.93;;
45420;SDS011;55462;47.042;8.292;2022-08-19T06:22:20;7.57;;;6.95;;
45420;SDS011;55462;47.042;8.292;2022-08-19T06:24:45;8.52;;;6.65;;
45420;SDS011;55462;47.042;8.292;2022-08-19T06:27:11;7.38;;;6.72;;
45420;SDS011;55462;47.042;8.292;2022-08-19T06:29:36;8.73;;;7.88;;
45420;SDS011;55462;47.042;8.292;2022-08-19T06:32:02;7.93;;;7.15;;
45420;SDS011;55462;47.042;8.292;2022-08-19T06:34:30;7.95;;;7.30;;
45420;SDS011;55462;47.042;8.292;2022-08-19T06:36:58;8.27;;;7.68;;
45420;SDS011;55462;47.042;8.292;2022-08-19T06:39:27;8.85;;;8.15;;
45420;SDS011;55462;47.042;8.292;2022-08-19T06:41:56;10.32;;;9.32;;
45420;SDS011;55462;47.042;8.292;2022-08-19T06:44:25;10.63;;;9.73;;
45420;SDS011;55462;47.042;8.292;2022-08-19T06:46:52;11.45;;;10.55;;
45420;SDS011;55462;47.042;8.292;2022-08-19T06:49:18;11.35;;;10.32;;
45420;SDS011;55462;47.042;8.292;2022-08-19T06:51:44;11.63;;;10.73;;
45420;SDS011;55462;47.042;8.292;2022-08-19T06:54:12;12.90;;;11.57;;
45420;SDS011;55462;47.042;8.292;2022-08-19T06:56:37;13.52;;;12.40;;
45420;SDS011;55462;47.042;8.292;2022-08-19T06:59:07;13.52;;;12.43;;
45420;SDS011;55462;47.042;8.292;2022-08-19T07:01:35;13.70;;;12.43;;
45420;SDS011;55462;47.042;8.292;2022-08-19T07:04:02;14.70;;;13.45;;
45420;SDS011;55462;47.042;8.292;2022-08-19T07:06:28;14.27;;;12.82;;
45420;SDS011;55462;47.042;8.292;2022-08-19T07:08:56;14.75;;;13.52;;
45420;SDS011;55462;47.042;8.292;2022-08-19T07:11:23;13.77;;;12.60;;
45420;SDS011;55462;47.042;8.292;2022-08-19T07:13:48;13.73;;;12.55;;
45420;SDS011;55462;47.042;8.292;2022-08-19T07:16:14;11.98;;;10.88;;
45420;SDS011;55462;47.042;8.292;2022-08-19T07:18:41;12.07;;;10.63;;
45420;SDS011;55462;47.042;8.292;2022-08-19T07:21:08;9.45;;;8.75;;
45420;SDS011;55462;47.042;8.292;2022-08-19T07:23:35;10.27;;;9.48;;
45420;SDS011;55462;47.042;8.292;2022-08-19T07:26:20;8.07;;;7.47;;
45420;SDS011;55462;47.042;8.292;2022-08-19T07:28:48;8.32;;;7.50;;
45420;SDS011;55462;47.042;8.292;2022-08-19T07:31:15;8.65;;;7.82;;
45420;SDS011;55462;47.042;8.292;2022-08-19T07:33:43;8.15;;;7.45;;
45420;SDS011;55462;47.042;8.292;2022-08-19T07:36:10;7.68;;;7.07;;
45420;SDS011;55462;47.042;8.292;2022-08-19T07:38:37;8.23;;;7.53;;
45420;SDS011;55462;47.042;8.292;2022-08-19T07:41:04;8.20;;;7.55;;
45420;SDS011;55462;47.042;8.292;2022-08-19T07:43:29;7.93;;;7.32;;
45420;SDS011;55462;47.042;8.292;2022-08-19T07:45:55;8.88;;;8.15;;
45420;SDS011;55462;47.042;8.292;2022-08-19T07:48:23;9.13;;;8.32;;
45420;SDS011;55462;47.042;8.292;2022-08-19T07:50:56;9.35;;;8.65;;
45420;SDS011;55462;47.042;8.292;2022-08-19T07:53:24;9.38;;;8.48;;
45420;SDS011;55462;47.042;8.292;2022-08-19T07:55:50;9.45;;;8.68;;
45420;SDS011;55462;47.042;8.292;2022-08-19T07:58:17;8.32;;;7.72;;
45420;SDS011;55462;47.042;8.292;2022-08-19T08:00:44;9.00;;;8.27;;
45420;SDS011;55462;47.042;8.292;2022-08-19T08:03:10;8.82;;;8.23;;
45420;SDS011;55462;47.042;8.292;2022-08-19T08:05:36;10.48;;;9.57;;
45420;SDS011;55462;47.042;8.292;2022-08-19T08:08:20;10.43;;;9.32;;
45420;SDS011;55462;47.042;8.292;2022-08-19T08:11:04;9.85;;;9.05;;
45420;SDS011;55462;47.042;8.292;2022-08-19T08:13:30;10.20;;;9.38;;
45420;SDS011;55462;47.042;8.292;2022-08-19T08:15:56;10.20;;;9.40;;
45420;SDS011;55462;47.042;8.292;2022-08-19T08:18:22;10.65;;;9.73;;
45420;SDS011;55462;47.042;8.292;2022-08-19T08:20:48;10.18;;;9.32;;
45420;SDS011;55462;47.042;8.292;2022-08-19T08:23:14;10.48;;;9.57;;
45420;SDS011;55462;47.042;8.292;2022-08-19T08:25:50;9.95;;;9.15;;
45420;SDS011;55462;47.042;8.292;2022-08-19T08:28:20;11.27;;;10.25;;
45420;SDS011;55462;47.042;8.292;2022-08-19T08:30:46;10.93;;;10.13;;
45420;SDS011;55462;47.042;8.292;2022-08-19T08:33:13;11.00;;;10.10;;
45420;SDS011;55462;47.042;8.292;2022-08-19T08:35:40;9.95;;;9.18;;
45420;SDS011;55462;47.042;8.292;2022-08-19T08:38:10;11.00;;;9.93;;
45420;SDS011;55462;47.042;8.292;2022-08-19T08:40:50;11.13;;;10.18;;
45420;SDS011;55462;47.042;8.292;2022-08-19T08:43:22;10.82;;;9.93;;
45420;SDS011;55462;47.042;8.292;2022-08-19T08:48:34;10.70;;;9.80;;
45420;SDS011;55462;47.042;8.292;2022-08-19T08:51:09;10.00;;;9.00;;
45420;SDS011;55462;47.042;8.292;2022-08-19T08:53:36;10.43;;;9.63;;
45420;SDS011;55462;47.042;8.292;2022-08-19T08:56:03;10.73;;;9.80;;
45420;SDS011;55462;47.042;8.292;2022-08-19T08:58:40;11.38;;;10.48;;
45420;SDS011;55462;47.042;8.292;2022-08-19T09:01:10;10.63;;;9.82;;
45420;SDS011;55462;47.042;8.292;2022-08-19T09:03:37;11.07;;;9.82;;
45420;SDS011;55462;47.042;8.292;2022-08-19T09:17:11;9.88;;;9.07;;
45420;SDS011;55462;47.042;8.292;2022-08-19T09:19:51;9.57;;;8.77;;
45420;SDS011;55462;47.042;8.292;2022-08-19T09:22:17;9.85;;;9.10;;
45420;SDS011;55462;47.042;8.292;2022-08-19T09:24:46;9.85;;;9.05;;
45420;SDS011;55462;47.042;8.292;2022-08-19T09:27:11;10.45;;;9.55;;
45420;SDS011;55462;47.042;8.292;2022-08-19T09:29:37;11.55;;;10.65;;
45420;SDS011;55462;47.042;8.292;2022-08-19T09:32:02;10.52;;;9.55;;
45420;SDS011;55462;47.042;8.292;2022-08-19T09:34:28;10.48;;;9.55;;
45420;SDS011;55462;47.042;8.292;2022-08-19T09:36:54;11.07;;;10.18;;
45420;SDS011;55462;47.042;8.292;2022-08-19T09:39:23;11.18;;;10.27;;
45420;SDS011;55462;47.042;8.292;2022-08-19T09:41:48;11.15;;;10.35;;
45420;SDS011;55462;47.042;8.292;2022-08-19T09:44:14;11.73;;;10.82;;
45420;SDS011;55462;47.042;8.292;2022-08-19T09:46:40;12.27;;;11.18;;
45420;SDS011;55462;47.042;8.292;2022-08-19T09:49:06;11.30;;;9.90;;
45420;SDS011;55462;47.042;8.292;2022-08-19T09:51:31;9.32;;;8.52;;
45420;SDS011;55462;47.042;8.292;2022-08-19T09:54:01;10.75;;;9.85;;
45420;SDS011;55462;47.042;8.292;2022-08-19T09:56:27;10.85;;;9.85;;
45420;SDS011;55462;47.042;8.292;2022-08-19T09:58:53;10.95;;;9.98;;
45420;SDS011;55462;47.042;8.292;2022-08-19T10:01:22;13.57;;;10.77;;
45420;SDS011;55462;47.042;8.292;2022-08-19T10:03:50;11.10;;;10.13;;
45420;SDS011;55462;47.042;8.292;2022-08-19T10:06:18;10.80;;;9.98;;
45420;SDS011;55462;47.042;8.292;2022-08-19T10:08:44;9.40;;;8.68;;
45420;SDS011;55462;47.042;8.292;2022-08-19T10:11:10;9.10;;;8.40;;
45420;SDS011;55462;47.042;8.292;2022-08-19T10:13:36;10.32;;;9.43;;
45420;SDS011;55462;47.042;8.292;2022-08-19T10:16:03;9.00;;;8.30;;
45420;SDS011;55462;47.042;8.292;2022-08-19T10:18:31;9.30;;;8.38;;
45420;SDS011;55462;47.042;8.292;2022-08-19T10:21:19;9.48;;;8.77;;
45420;SDS011;55462;47.042;8.292;2022-08-19T10:23:47;9.50;;;8.77;;
45420;SDS011;55462;47.042;8.292;2022-08-19T10:26:15;9.70;;;8.98;;
45420;SDS011;55462;47.042;8.292;2022-08-19T10:28:42;9.43;;;8.73;;
45420;SDS011;55462;47.042;8.292;2022-08-19T10:31:15;8.85;;;8.10;;
45420;SDS011;55462;47.042;8.292;2022-08-19T10:33:44;10.02;;;9.23;;
45420;SDS011;55462;47.042;8.292;2022-08-19T10:36:12;9.82;;;9.02;;
45420;SDS011;55462;47.042;8.292;2022-08-19T10:38:42;10.60;;;9.77;;
45420;SDS011;55462;47.042;8.292;2022-08-19T10:41:11;10.20;;;9.40;;
45420;SDS011;55462;47.042;8.292;2022-08-19T10:43:37;11.63;;;10.57;;
45420;SDS011;55462;47.042;8.292;2022-08-19T10:46:05;10.40;;;9.60;;
45420;SDS011;55462;47.042;8.292;2022-08-19T10:48:31;11.20;;;10.25;;
45420;SDS011;55462;47.042;8.292;2022-08-19T10:50:58;12.18;;;11.07;;
45420;SDS011;55462;47.042;8.292;2022-08-19T10:53:42;10.57;;;9.68;;
45420;SDS011;55462;47.042;8.292;2022-08-19T10:56:07;12.15;;;11.07;;
45420;SDS011;55462;47.042;8.292;2022-08-19T10:58:51;11.65;;;10.73;;
45420;SDS011;55462;47.042;8.292;2022-08-19T11:01:17;12.95;;;11.65;;
45420;SDS011;55462;47.042;8.292;2022-08-19T11:03:43;11.95;;;11.00;;
45420;SDS011;55462;47.042;8.292;2022-08-19T11:06:10;12.00;;;10.90;;
45420;SDS011;55462;47.042;8.292;2022-08-19T11:08:35;12.55;;;11.25;;
45420;SDS011;55462;47.042;8.292;2022-08-19T11:11:03;12.07;;;11.00;;
45420;SDS011;55462;47.042;8.292;2022-08-19T11:13:29;11.27;;;10.48;;
45420;SDS011;55462;47.042;8.292;2022-08-19T11:16:08;12.27;;;11.20;;
45420;SDS011;55462;47.042;8.292;2022-08-19T11:18:36;11.65;;;10.65;;
45420;SDS011;55462;47.042;8.292;2022-08-19T11:21:17;12.07;;;10.95;;
45420;SDS011;55462;47.042;8.292;2022-08-19T11:23:46;11.23;;;10.30;;
45420;SDS011;55462;47.042;8.292;2022-08-19T11:26:13;10.88;;;9.90;;
45420;SDS011;55462;47.042;8.292;2022-08-19T11:28:39;9.82;;;9.00;;
45420;SDS011;55462;47.042;8.292;2022-08-19T11:31:09;9.95;;;9.15;;
45420;SDS011;55462;47.042;8.292;2022-08-19T11:33:36;10.82;;;10.02;;
45420;SDS011;55462;47.042;8.292;2022-08-19T11:36:01;10.15;;;9.35;;
45420;SDS011;55462;47.042;8.292;2022-08-19T11:38:27;10.10;;;9.30;;
45420;SDS011;55462;47.042;8.292;2022-08-19T11:40:56;9.82;;;9.02;;
45420;SDS011;55462;47.042;8.292;2022-08-19T11:43:23;9.35;;;8.65;;
45420;SDS011;55462;47.042;8.292;2022-08-19T11:45:51;8.60;;;7.80;;
45420;SDS011;55462;47.042;8.292;2022-08-19T11:48:16;7.45;;;6.90;;
45420;SDS011;55462;47.042;8.292;2022-08-19T11:50:46;8.20;;;7.60;;
45420;SDS011;55462;47.042;8.292;2022-08-19T11:53:12;8.02;;;7.45;;
45420;SDS011;55462;47.042;8.292;2022-08-19T11:55:37;8.27;;;7.63;;
45420;SDS011;55462;47.042;8.292;2022-08-19T11:58:04;7.72;;;7.03;;
45420;SDS011;55462;47.042;8.292;2022-08-19T12:00:31;7.93;;;7.28;;
45420;SDS011;55462;47.042;8.292;2022-08-19T12:02:58;8.13;;;7.53;;
45420;SDS011;55462;47.042;8.292;2022-08-19T12:05:23;8.65;;;7.95;;
45420;SDS011;55462;47.042;8.292;2022-08-19T12:07:48;8.90;;;8.10;;
45420;SDS011;55462;47.042;8.292;2022-08-19T12:10:14;8.65;;;8.00;;
45420;SDS011;55462;47.042;8.292;2022-08-19T12:12:39;9.27;;;8.07;;
45420;SDS011;55462;47.042;8.292;2022-08-19T12:15:07;9.10;;;8.20;;
45420;SDS011;55462;47.042;8.292;2022-08-19T12:17:34;8.88;;;8.02;;
45420;SDS011;55462;47.042;8.292;2022-08-19T12:19:59;9.50;;;8.52;;
45420;SDS011;55462;47.042;8.292;2022-08-19T12:22:25;9.73;;;8.85;;
45420;SDS011;55462;47.042;8.292;2022-08-19T12:24:51;8.82;;;8.02;;
45420;SDS011;55462;47.042;8.292;2022-08-19T12:27:18;9.95;;;8.95;;
45420;SDS011;55462;47.042;8.292;2022-08-19T12:29:43;10.82;;;9.80;;
45420;SDS011;55462;47.042;8.292;2022-08-19T12:32:09;9.15;;;8.45;;
45420;SDS011;55462;47.042;8.292;2022-08-19T12:34:35;10.10;;;9.20;;
45420;SDS011;55462;47.042;8.292;2022-08-19T12:37:02;10.60;;;9.70;;
45420;SDS011;55462;47.042;8.292;2022-08-19T12:39:29;9.20;;;8.45;;
45420;SDS011;55462;47.042;8.292;2022-08-19T12:41:56;8.80;;;8.00;;
45420;SDS011;55462;47.042;8.292;2022-08-19T12:44:21;9.00;;;8.18;;
45420;SDS011;55462;47.042;8.292;2022-08-19T12:46:47;8.00;;;7.40;;
45420;SDS011;55462;47.042;8.292;2022-08-19T12:49:14;9.35;;;8.55;;
45420;SDS011;55462;47.042;8.292;2022-08-19T12:51:40;10.30;;;9.50;;
45420;SDS011;55462;47.042;8.292;2022-08-19T12:54:06;9.30;;;8.52;;
45420;SDS011;55462;47.042;8.292;2022-08-19T12:56:31;10.30;;;9.40;;
45420;SDS011;55462;47.042;8.292;2022-08-19T12:59:00;9.80;;;8.90;;
45420;SDS011;55462;47.042;8.292;2022-08-19T13:01:26;10.02;;;9.05;;
45420;SDS011;55462;47.042;8.292;2022-08-19T13:03:52;10.90;;;10.05;;
45420;SDS011;55462;47.042;8.292;2022-08-19T13:06:18;10.88;;;9.98;;
45420;SDS011;55462;47.042;8.292;2022-08-19T13:08:43;11.50;;;10.50;;
45420;SDS011;55462;47.042;8.292;2022-08-19T13:11:10;12.85;;;11.75;;
45420;SDS011;55462;47.042;8.292;2022-08-19T13:13:37;13.27;;;11.52;;
45420;SDS011;55462;47.042;8.292;2022-08-19T13:16:06;12.50;;;11.38;;
45420;SDS011;55462;47.042;8.292;2022-08-19T13:18:32;11.70;;;10.77;;
45420;SDS011;55462;47.042;8.292;2022-08-19T13:21:01;11.95;;;11.05;;
45420;SDS011;55462;47.042;8.292;2022-08-19T13:23:28;12.00;;;10.90;;
45420;SDS011;55462;47.042;8.292;2022-08-19T13:26:00;12.07;;;11.02;;
45420;SDS011;55462;47.042;8.292;2022-08-19T13:28:28;12.63;;;11.57;;
45420;SDS011;55462;47.042;8.292;2022-08-19T13:31:17;14.10;;;12.90;;
45420;SDS011;55462;47.042;8.292;2022-08-19T13:34:01;13.80;;;12.65;;
45420;SDS011;55462;47.042;8.292;2022-08-19T13:36:26;13.85;;;12.50;;
45420;SDS011;55462;47.042;8.292;2022-08-19T13:38:52;14.35;;;13.07;;
45420;SDS011;55462;47.042;8.292;2022-08-19T13:41:17;13.52;;;12.20;;
45420;SDS011;55462;47.042;8.292;2022-08-19T13:43:44;14.07;;;12.98;;
45420;SDS011;55462;47.042;8.292;2022-08-19T13:46:10;13.98;;;12.70;;
45420;SDS011;55462;47.042;8.292;2022-08-19T13:48:38;15.63;;;14.15;;
45420;SDS011;55462;47.042;8.292;2022-08-19T13:51:04;13.80;;;12.60;;
45420;SDS011;55462;47.042;8.292;2022-08-19T13:53:30;14.75;;;13.45;;
45420;SDS011;55462;47.042;8.292;2022-08-19T13:55:55;15.20;;;13.90;;
45420;SDS011;55462;47.042;8.292;2022-08-19T13:58:21;16.13;;;14.68;;
45420;SDS011;55462;47.042;8.292;2022-08-19T14:00:47;14.60;;;13.20;;
45420;SDS011;55462;47.042;8.292;2022-08-19T14:03:13;11.80;;;10.80;;
45420;SDS011;55462;47.042;8.292;2022-08-19T14:05:38;11.32;;;10.43;;
45420;SDS011;55462;47.042;8.292;2022-08-19T14:08:04;11.20;;;10.20;;
45420;SDS011;55462;47.042;8.292;2022-08-19T14:10:29;11.30;;;10.35;;
45420;SDS011;55462;47.042;8.292;2022-08-19T14:12:57;11.00;;;10.10;;
45420;SDS011;55462;47.042;8.292;2022-08-19T14:15:23;10.60;;;9.80;;
45420;SDS011;55462;47.042;8.292;2022-08-19T14:17:49;11.00;;;10.10;;
45420;SDS011;55462;47.042;8.292;2022-08-19T14:20:15;9.95;;;9.25;;
45420;SDS011;55462;47.042;8.292;2022-08-19T14:22:41;10.52;;;9.57;;
45420;SDS011;55462;47.042;8.292;2022-08-19T14:25:08;9.98;;;9.27;;
45420;SDS011;55462;47.042;8.292;2022-08-19T14:27:36;9.48;;;8.73;;
45420;SDS011;55462;47.042;8.292;2022-08-19T14:30:03;8.73;;;8.02;;
45420;SDS011;55462;47.042;8.292;2022-08-19T14:32:30;8.38;;;7.57;;
45420;SDS011;55462;47.042;8.292;2022-08-19T14:34:55;8.55;;;7.95;;
45420;SDS011;55462;47.042;8.292;2022-08-19T14:37:21;8.30;;;7.70;;
45420;SDS011;55462;47.042;8.292;2022-08-19T14:39:47;7.85;;;7.25;;
45420;SDS011;55462;47.042;8.292;2022-08-19T14:42:12;8.85;;;8.10;;
45420;SDS011;55462;47.042;8.292;2022-08-19T14:44:39;8.48;;;7.82;;
45420;SDS011;55462;47.042;8.292;2022-08-19T14:47:05;8.15;;;7.55;;
45420;SDS011;55462;47.042;8.292;2022-08-19T14:49:32;8.73;;;8.13;;
45420;SDS011;55462;47.042;8.292;2022-08-19T14:51:58;9.75;;;8.95;;
45420;SDS011;55462;47.042;8.292;2022-08-19T14:54:23;10.05;;;9.30;;
45420;SDS011;55462;47.042;8.292;2022-08-19T14:56:48;8.85;;;8.25;;
45420;SDS011;55462;47.042;8.292;2022-08-19T14:59:15;9.38;;;8.55;;